BGA52A EPKT-EPWA
Flight info
| Callsign | BGA52A |
|---|---|
| Flight time | N/A |
| Altitude | 21000 |
| Route | KURON T709 KOTEK M866 LOGDA |
| Aircraft | A3ST/H-SDFGHIRWY/LB1 |
Departure
| Time | 2026-05-05 08:45 |
|---|---|
| Airport | Katowice Wojciech Korfanty International Airport (EPKT) |
Arrival
| Time | N/A |
|---|---|
| Airport | Warsaw Chopin Airport (EPWA) |
| Time | Latitude | Longitude | Altitude | Speed | Heading |
|---|---|---|---|---|---|
| 2026-05-05 07:11 | 50.47128 | 19.09940 | 1020 ft | 0 kts | 180° |
| 2026-05-05 08:32 | 50.47129 | 19.09940 | 1020 ft | 1 kts | 180° |
| 2026-05-05 08:32 | 50.47144 | 19.09940 | 1019 ft | 2 kts | 180° |
| 2026-05-05 08:32 | 50.47158 | 19.09940 | 1019 ft | 2 kts | 180° |
| 2026-05-05 08:32 | 50.47173 | 19.09940 | 1018 ft | 2 kts | 180° |
| 2026-05-05 08:33 | 50.47188 | 19.09940 | 1017 ft | 2 kts | 180° |
| 2026-05-05 08:33 | 50.47203 | 19.09940 | 1017 ft | 2 kts | 180° |
| 2026-05-05 08:33 | 50.47218 | 19.09940 | 1016 ft | 2 kts | 193° |
| 2026-05-05 08:33 | 50.47229 | 19.09953 | 1016 ft | 2 kts | 245° |
| 2026-05-05 08:34 | 50.47231 | 19.09966 | 1017 ft | 1 kts | 272° |
| 2026-05-05 08:34 | 50.47231 | 19.09976 | 1017 ft | 0 kts | 270° |
| 2026-05-05 08:36 | 50.47231 | 19.09957 | 1017 ft | 3 kts | 268° |
| 2026-05-05 08:36 | 50.47229 | 19.09887 | 1015 ft | 8 kts | 269° |
| 2026-05-05 08:37 | 50.47228 | 19.09761 | 1012 ft | 14 kts | 268° |
| 2026-05-05 08:37 | 50.47235 | 19.09577 | 1007 ft | 6 kts | 286° |
| 2026-05-05 08:37 | 50.47239 | 19.09518 | 1006 ft | 8 kts | 265° |
| 2026-05-05 08:37 | 50.47233 | 19.09398 | 1003 ft | 13 kts | 268° |
| 2026-05-05 08:38 | 50.47234 | 19.09244 | 1001 ft | 8 kts | 268° |
| 2026-05-05 08:38 | 50.47230 | 19.09134 | 1001 ft | 11 kts | 268° |
| 2026-05-05 08:38 | 50.47230 | 19.08983 | 999 ft | 16 kts | 267° |
| 2026-05-05 08:38 | 50.47220 | 19.08776 | 996 ft | 21 kts | 275° |
| 2026-05-05 08:39 | 50.47268 | 19.08581 | 992 ft | 21 kts | 343° |
| 2026-05-05 08:39 | 50.47412 | 19.08540 | 991 ft | 22 kts | 296° |
| 2026-05-05 08:39 | 50.47417 | 19.08287 | 990 ft | 26 kts | 270° |
| 2026-05-05 08:39 | 50.47430 | 19.07974 | 989 ft | 30 kts | 267° |
| 2026-05-05 08:40 | 50.47427 | 19.07640 | 989 ft | 32 kts | 271° |
| 2026-05-05 08:40 | 50.47427 | 19.07264 | 986 ft | 37 kts | 271° |
| 2026-05-05 08:40 | 50.47422 | 19.06848 | 982 ft | 39 kts | 269° |
| 2026-05-05 08:40 | 50.47430 | 19.06510 | 982 ft | 11 kts | 271° |
| 2026-05-05 08:41 | 50.47430 | 19.06400 | 982 ft | 8 kts | 269° |
| 2026-05-05 08:41 | 50.47429 | 19.06326 | 982 ft | 5 kts | 266° |
| 2026-05-05 08:41 | 50.47429 | 19.06262 | 981 ft | 6 kts | 271° |
| 2026-05-05 08:41 | 50.47430 | 19.06191 | 979 ft | 7 kts | 270° |
| 2026-05-05 08:42 | 50.47430 | 19.06100 | 979 ft | 7 kts | 268° |
| 2026-05-05 08:42 | 50.47435 | 19.06025 | 979 ft | 6 kts | 301° |
| 2026-05-05 08:42 | 50.47476 | 19.05981 | 978 ft | 8 kts | 353° |
| 2026-05-05 08:42 | 50.47543 | 19.05979 | 977 ft | 10 kts | 359° |
| 2026-05-05 08:43 | 50.47591 | 19.05983 | 976 ft | 2 kts | 32° |
| 2026-05-05 08:43 | 50.47603 | 19.06011 | 976 ft | 3 kts | 76° |
| 2026-05-05 08:43 | 50.47605 | 19.06042 | 976 ft | 0 kts | 89° |
| 2026-05-05 08:44 | 50.47605 | 19.06049 | 976 ft | 8 kts | 89° |
| 2026-05-05 08:44 | 50.47566 | 19.06544 | 980 ft | 87 kts | 100° |
| 2026-05-05 08:44 | 50.47511 | 19.07832 | 988 ft | 151 kts | 87° |
| 2026-05-05 08:45 | 50.47586 | 19.09583 | 998 ft | 156 kts | 90° |
| 2026-05-05 08:45 | 50.47597 | 19.11469 | 1034 ft | 190 kts | 94° |
| 2026-05-05 08:45 | 50.47624 | 19.13310 | 1708 ft | 175 kts | 93° |
| 2026-05-05 08:45 | 50.47705 | 19.15293 | 2048 ft | 183 kts | 91° |
| 2026-05-05 08:46 | 50.47807 | 19.17239 | 2435 ft | 175 kts | 90° |
| 2026-05-05 08:46 | 50.47882 | 19.19143 | 2645 ft | 180 kts | 93° |
| 2026-05-05 08:46 | 50.47875 | 19.21055 | 2609 ft | 196 kts | 97° |
| 2026-05-05 08:46 | 50.47762 | 19.23166 | 3041 ft | 184 kts | 101° |
| 2026-05-05 08:47 | 50.47553 | 19.25060 | 3428 ft | 176 kts | 106° |
| 2026-05-05 08:47 | 50.47217 | 19.26951 | 3448 ft | 191 kts | 111° |
| 2026-05-05 08:47 | 50.46737 | 19.28863 | 3507 ft | 205 kts | 118° |
| 2026-05-05 08:47 | 50.46026 | 19.30925 | 3291 ft | 236 kts | 125° |
| 2026-05-05 08:48 | 50.44992 | 19.33000 | 3692 ft | 235 kts | 137° |
| 2026-05-05 08:48 | 50.43829 | 19.34459 | 4631 ft | 207 kts | 151° |
| 2026-05-05 08:48 | 50.42606 | 19.35295 | 5016 ft | 207 kts | 166° |